Tyaskin, Maryland
Current Conditions -  °F | °C
As of 11:36 PM on Friday 24 Oct 2014 (Local Time) from KCGE Reporting Station
Clear Clear  
Wind Chill: 57°   Ceiling: Unl
Heat Index: 57°   Visibility: 10mi
Dew Point: 41°   Wind: 7mph
Humidity: 55%   Direction: 310°NW
Pressure: 29.93"   Gusts: NA
Location:  38.32°N, 75.87°W
Report Text: KCGE 250336Z AUTO 31006KT 10SM CLR 14/05 A2993 RMK AO1
Loading
Personal Weather Stations






























Interactive Weather Map New forecast layout! Learn more

10-Day Weather Forecast

Advertisements
Track Severe Weather on mobile